sensor_id;sensor_type;location;lat;lon;timestamp;P1;durP1;ratioP1;P2;durP2;ratioP2
57856;SDS011;43683;48.650;9.290;2024-01-11T00:00:08;72.18;;;45.13;;
57856;SDS011;43683;48.650;9.290;2024-01-11T00:02:34;78.45;;;42.90;;
57856;SDS011;43683;48.650;9.290;2024-01-11T00:04:59;69.07;;;41.53;;
57856;SDS011;43683;48.650;9.290;2024-01-11T00:07:25;70.43;;;42.42;;
57856;SDS011;43683;48.650;9.290;2024-01-11T00:09:50;75.57;;;45.10;;
57856;SDS011;43683;48.650;9.290;2024-01-11T00:12:16;74.97;;;43.65;;
57856;SDS011;43683;48.650;9.290;2024-01-11T00:14:41;69.47;;;41.65;;
57856;SDS011;43683;48.650;9.290;2024-01-11T00:17:07;72.80;;;42.75;;
57856;SDS011;43683;48.650;9.290;2024-01-11T00:19:32;70.00;;;40.97;;
57856;SDS011;43683;48.650;9.290;2024-01-11T00:21:58;74.75;;;43.00;;
57856;SDS011;43683;48.650;9.290;2024-01-11T00:24:23;68.78;;;40.70;;
57856;SDS011;43683;48.650;9.290;2024-01-11T00:26:49;76.30;;;44.53;;
57856;SDS011;43683;48.650;9.290;2024-01-11T00:29:15;70.50;;;44.17;;
57856;SDS011;43683;48.650;9.290;2024-01-11T00:31:40;77.53;;;43.88;;
57856;SDS011;43683;48.650;9.290;2024-01-11T00:34:06;72.13;;;43.70;;
57856;SDS011;43683;48.650;9.290;2024-01-11T00:36:31;73.78;;;42.30;;
57856;SDS011;43683;48.650;9.290;2024-01-11T00:39:01;68.10;;;41.13;;
57856;SDS011;43683;48.650;9.290;2024-01-11T00:41:27;60.17;;;38.13;;
57856;SDS011;43683;48.650;9.290;2024-01-11T00:43:53;69.05;;;39.80;;
57856;SDS011;43683;48.650;9.290;2024-01-11T00:46:18;62.58;;;41.15;;
57856;SDS011;43683;48.650;9.290;2024-01-11T00:48:44;64.25;;;39.08;;
57856;SDS011;43683;48.650;9.290;2024-01-11T00:51:09;70.97;;;41.85;;
57856;SDS011;43683;48.650;9.290;2024-01-11T00:53:35;65.47;;;40.65;;
57856;SDS011;43683;48.650;9.290;2024-01-11T00:56:00;71.30;;;40.33;;
57856;SDS011;43683;48.650;9.290;2024-01-11T00:58:26;67.20;;;40.28;;
57856;SDS011;43683;48.650;9.290;2024-01-11T01:00:53;62.65;;;38.25;;
57856;SDS011;43683;48.650;9.290;2024-01-11T01:03:19;62.03;;;38.77;;
57856;SDS011;43683;48.650;9.290;2024-01-11T01:05:45;56.87;;;36.37;;
57856;SDS011;43683;48.650;9.290;2024-01-11T01:08:11;61.75;;;37.13;;
57856;SDS011;43683;48.650;9.290;2024-01-11T01:10:37;61.55;;;40.08;;
57856;SDS011;43683;48.650;9.290;2024-01-11T01:13:02;68.22;;;40.72;;
57856;SDS011;43683;48.650;9.290;2024-01-11T01:15:28;62.25;;;38.70;;
57856;SDS011;43683;48.650;9.290;2024-01-11T01:17:54;66.28;;;40.92;;
57856;SDS011;43683;48.650;9.290;2024-01-11T01:20:19;83.15;;;42.10;;
57856;SDS011;43683;48.650;9.290;2024-01-11T01:22:45;66.97;;;39.53;;
57856;SDS011;43683;48.650;9.290;2024-01-11T01:25:10;60.38;;;38.80;;
57856;SDS011;43683;48.650;9.290;2024-01-11T01:27:36;64.07;;;41.35;;
57856;SDS011;43683;48.650;9.290;2024-01-11T01:30:01;63.67;;;41.38;;
57856;SDS011;43683;48.650;9.290;2024-01-11T01:32:28;68.47;;;38.17;;
57856;SDS011;43683;48.650;9.290;2024-01-11T01:34:53;62.35;;;40.78;;
57856;SDS011;43683;48.650;9.290;2024-01-11T01:37:19;68.53;;;39.28;;
57856;SDS011;43683;48.650;9.290;2024-01-11T01:39:44;61.33;;;36.65;;
57856;SDS011;43683;48.650;9.290;2024-01-11T01:42:10;61.97;;;37.95;;
57856;SDS011;43683;48.650;9.290;2024-01-11T01:44:35;61.80;;;39.45;;
57856;SDS011;43683;48.650;9.290;2024-01-11T01:47:02;69.93;;;40.10;;
57856;SDS011;43683;48.650;9.290;2024-01-11T01:49:29;62.70;;;39.10;;
57856;SDS011;43683;48.650;9.290;2024-01-11T01:51:55;63.47;;;38.88;;
57856;SDS011;43683;48.650;9.290;2024-01-11T01:54:21;58.50;;;37.90;;
57856;SDS011;43683;48.650;9.290;2024-01-11T01:56:47;62.67;;;38.03;;
57856;SDS011;43683;48.650;9.290;2024-01-11T01:59:14;62.28;;;37.53;;
57856;SDS011;43683;48.650;9.290;2024-01-11T02:01:40;67.50;;;39.42;;
57856;SDS011;43683;48.650;9.290;2024-01-11T02:04:06;64.40;;;38.20;;
57856;SDS011;43683;48.650;9.290;2024-01-11T02:06:32;59.80;;;38.65;;
57856;SDS011;43683;48.650;9.290;2024-01-11T02:08:59;61.65;;;37.83;;
57856;SDS011;43683;48.650;9.290;2024-01-11T02:11:29;67.65;;;39.47;;
57856;SDS011;43683;48.650;9.290;2024-01-11T02:13:55;70.55;;;40.58;;
57856;SDS011;43683;48.650;9.290;2024-01-11T02:16:22;63.33;;;40.67;;
57856;SDS011;43683;48.650;9.290;2024-01-11T02:18:48;64.47;;;39.25;;
57856;SDS011;43683;48.650;9.290;2024-01-11T02:21:14;64.70;;;39.33;;
57856;SDS011;43683;48.650;9.290;2024-01-11T02:23:44;66.17;;;38.43;;
57856;SDS011;43683;48.650;9.290;2024-01-11T02:26:28;62.13;;;38.08;;
57856;SDS011;43683;48.650;9.290;2024-01-11T02:28:53;60.83;;;36.58;;
57856;SDS011;43683;48.650;9.290;2024-01-11T02:31:19;60.85;;;37.72;;
57856;SDS011;43683;48.650;9.290;2024-01-11T02:33:44;56.67;;;34.30;;
57856;SDS011;43683;48.650;9.290;2024-01-11T02:36:10;53.65;;;35.50;;
57856;SDS011;43683;48.650;9.290;2024-01-11T02:38:35;65.28;;;37.70;;
57856;SDS011;43683;48.650;9.290;2024-01-11T02:41:03;69.60;;;40.92;;
57856;SDS011;43683;48.650;9.290;2024-01-11T02:43:30;71.63;;;41.33;;
57856;SDS011;43683;48.650;9.290;2024-01-11T02:45:55;73.15;;;42.05;;
57856;SDS011;43683;48.650;9.290;2024-01-11T02:50:52;77.22;;;40.10;;
57856;SDS011;43683;48.650;9.290;2024-01-11T02:53:17;79.38;;;44.40;;
57856;SDS011;43683;48.650;9.290;2024-01-11T02:55:43;75.10;;;43.70;;
57856;SDS011;43683;48.650;9.290;2024-01-11T02:58:08;85.88;;;46.85;;
57856;SDS011;43683;48.650;9.290;2024-01-11T03:00:34;81.85;;;44.50;;
57856;SDS011;43683;48.650;9.290;2024-01-11T03:02:59;82.72;;;45.50;;
57856;SDS011;43683;48.650;9.290;2024-01-11T03:05:25;86.63;;;48.55;;
57856;SDS011;43683;48.650;9.290;2024-01-11T03:07:51;93.47;;;48.78;;
57856;SDS011;43683;48.650;9.290;2024-01-11T03:10:16;95.95;;;50.33;;
57856;SDS011;43683;48.650;9.290;2024-01-11T03:12:42;91.03;;;49.95;;
57856;SDS011;43683;48.650;9.290;2024-01-11T03:15:08;97.10;;;51.97;;
57856;SDS011;43683;48.650;9.290;2024-01-11T03:17:34;91.45;;;51.17;;
57856;SDS011;43683;48.650;9.290;2024-01-11T03:19:59;87.95;;;46.05;;
57856;SDS011;43683;48.650;9.290;2024-01-11T03:22:25;87.43;;;47.08;;
57856;SDS011;43683;48.650;9.290;2024-01-11T03:24:51;76.65;;;44.05;;
57856;SDS011;43683;48.650;9.290;2024-01-11T03:27:16;73.10;;;43.25;;
57856;SDS011;43683;48.650;9.290;2024-01-11T03:29:42;70.20;;;43.15;;
57856;SDS011;43683;48.650;9.290;2024-01-11T03:32:07;75.68;;;43.20;;
57856;SDS011;43683;48.650;9.290;2024-01-11T03:34:33;81.35;;;44.67;;
57856;SDS011;43683;48.650;9.290;2024-01-11T03:36:58;75.28;;;44.97;;
57856;SDS011;43683;48.650;9.290;2024-01-11T03:39:25;84.00;;;45.33;;
57856;SDS011;43683;48.650;9.290;2024-01-11T03:41:50;77.78;;;44.05;;
57856;SDS011;43683;48.650;9.290;2024-01-11T03:44:16;82.55;;;46.42;;
57856;SDS011;43683;48.650;9.290;2024-01-11T03:46:41;68.60;;;40.47;;
57856;SDS011;43683;48.650;9.290;2024-01-11T03:49:07;73.85;;;43.10;;
57856;SDS011;43683;48.650;9.290;2024-01-11T03:51:33;66.10;;;38.38;;
57856;SDS011;43683;48.650;9.290;2024-01-11T03:53:59;71.32;;;40.65;;
57856;SDS011;43683;48.650;9.290;2024-01-11T03:56:25;64.82;;;39.22;;
57856;SDS011;43683;48.650;9.290;2024-01-11T03:58:50;62.55;;;39.63;;
57856;SDS011;43683;48.650;9.290;2024-01-11T04:01:16;57.13;;;36.20;;
57856;SDS011;43683;48.650;9.290;2024-01-11T04:03:41;55.05;;;34.72;;
57856;SDS011;43683;48.650;9.290;2024-01-11T04:06:07;58.78;;;34.83;;
57856;SDS011;43683;48.650;9.290;2024-01-11T04:08:33;59.75;;;37.10;;
57856;SDS011;43683;48.650;9.290;2024-01-11T04:11:01;61.85;;;36.70;;
57856;SDS011;43683;48.650;9.290;2024-01-11T04:13:29;60.92;;;36.08;;
57856;SDS011;43683;48.650;9.290;2024-01-11T04:15:54;53.75;;;34.03;;
57856;SDS011;43683;48.650;9.290;2024-01-11T04:18:20;55.08;;;32.60;;
57856;SDS011;43683;48.650;9.290;2024-01-11T04:20:45;62.28;;;36.45;;
57856;SDS011;43683;48.650;9.290;2024-01-11T04:23:11;60.50;;;37.55;;
57856;SDS011;43683;48.650;9.290;2024-01-11T04:25:36;56.05;;;35.40;;
57856;SDS011;43683;48.650;9.290;2024-01-11T04:28:02;59.53;;;37.42;;
57856;SDS011;43683;48.650;9.290;2024-01-11T04:30:27;60.97;;;38.30;;
57856;SDS011;43683;48.650;9.290;2024-01-11T04:32:53;55.70;;;33.85;;
57856;SDS011;43683;48.650;9.290;2024-01-11T04:35:18;56.47;;;35.55;;
57856;SDS011;43683;48.650;9.290;2024-01-11T04:37:44;56.72;;;35.90;;
57856;SDS011;43683;48.650;9.290;2024-01-11T04:40:09;52.80;;;33.95;;
57856;SDS011;43683;48.650;9.290;2024-01-11T04:42:35;56.50;;;33.90;;
57856;SDS011;43683;48.650;9.290;2024-01-11T04:45:01;58.15;;;34.67;;
57856;SDS011;43683;48.650;9.290;2024-01-11T04:47:26;56.42;;;34.63;;
57856;SDS011;43683;48.650;9.290;2024-01-11T04:49:52;56.67;;;35.00;;
57856;SDS011;43683;48.650;9.290;2024-01-11T04:52:17;61.53;;;36.67;;
57856;SDS011;43683;48.650;9.290;2024-01-11T04:54:43;61.88;;;35.70;;
57856;SDS011;43683;48.650;9.290;2024-01-11T04:57:08;60.08;;;35.42;;
57856;SDS011;43683;48.650;9.290;2024-01-11T04:59:34;66.47;;;38.28;;
57856;SDS011;43683;48.650;9.290;2024-01-11T05:01:59;57.72;;;36.10;;
57856;SDS011;43683;48.650;9.290;2024-01-11T05:04:25;62.58;;;38.42;;
57856;SDS011;43683;48.650;9.290;2024-01-11T05:06:51;55.65;;;35.28;;
57856;SDS011;43683;48.650;9.290;2024-01-11T05:09:16;59.92;;;36.90;;
57856;SDS011;43683;48.650;9.290;2024-01-11T05:11:42;54.35;;;34.30;;
57856;SDS011;43683;48.650;9.290;2024-01-11T05:14:07;54.47;;;33.47;;
57856;SDS011;43683;48.650;9.290;2024-01-11T05:16:33;55.03;;;33.53;;
57856;SDS011;43683;48.650;9.290;2024-01-11T05:19:00;63.25;;;34.95;;
57856;SDS011;43683;48.650;9.290;2024-01-11T05:21:26;62.92;;;36.10;;
57856;SDS011;43683;48.650;9.290;2024-01-11T05:23:51;60.30;;;35.47;;
57856;SDS011;43683;48.650;9.290;2024-01-11T05:26:17;62.20;;;36.00;;
57856;SDS011;43683;48.650;9.290;2024-01-11T05:28:44;66.68;;;38.00;;
57856;SDS011;43683;48.650;9.290;2024-01-11T05:31:10;62.15;;;37.33;;
57856;SDS011;43683;48.650;9.290;2024-01-11T05:33:37;64.55;;;37.05;;
57856;SDS011;43683;48.650;9.290;2024-01-11T05:36:04;64.63;;;37.50;;
57856;SDS011;43683;48.650;9.290;2024-01-11T05:38:30;59.90;;;36.10;;
57856;SDS011;43683;48.650;9.290;2024-01-11T05:40:55;62.25;;;36.50;;
57856;SDS011;43683;48.650;9.290;2024-01-11T05:43:21;55.72;;;34.22;;
57856;SDS011;43683;48.650;9.290;2024-01-11T05:45:48;56.33;;;34.60;;
57856;SDS011;43683;48.650;9.290;2024-01-11T05:48:14;55.90;;;34.78;;
57856;SDS011;43683;48.650;9.290;2024-01-11T05:50:40;55.35;;;34.60;;
57856;SDS011;43683;48.650;9.290;2024-01-11T05:53:06;58.10;;;35.15;;
57856;SDS011;43683;48.650;9.290;2024-01-11T05:55:32;58.83;;;34.40;;
57856;SDS011;43683;48.650;9.290;2024-01-11T05:57:57;52.90;;;32.08;;
57856;SDS011;43683;48.650;9.290;2024-01-11T06:00:23;53.05;;;33.13;;
57856;SDS011;43683;48.650;9.290;2024-01-11T06:02:48;47.88;;;32.38;;
57856;SDS011;43683;48.650;9.290;2024-01-11T06:05:14;50.67;;;32.80;;
57856;SDS011;43683;48.650;9.290;2024-01-11T06:07:40;55.42;;;33.38;;
57856;SDS011;43683;48.650;9.290;2024-01-11T06:10:06;55.95;;;33.53;;
57856;SDS011;43683;48.650;9.290;2024-01-11T06:12:33;59.55;;;34.53;;
57856;SDS011;43683;48.650;9.290;2024-01-11T06:14:59;53.42;;;33.63;;
57856;SDS011;43683;48.650;9.290;2024-01-11T06:17:25;54.88;;;33.40;;
57856;SDS011;43683;48.650;9.290;2024-01-11T06:19:51;56.50;;;32.83;;
57856;SDS011;43683;48.650;9.290;2024-01-11T06:22:16;53.13;;;33.55;;
57856;SDS011;43683;48.650;9.290;2024-01-11T06:24:43;57.10;;;34.22;;
57856;SDS011;43683;48.650;9.290;2024-01-11T06:27:08;57.15;;;35.13;;
57856;SDS011;43683;48.650;9.290;2024-01-11T06:29:34;60.85;;;36.33;;
57856;SDS011;43683;48.650;9.290;2024-01-11T06:32:00;59.53;;;36.17;;
57856;SDS011;43683;48.650;9.290;2024-01-11T06:34:25;56.33;;;33.15;;
57856;SDS011;43683;48.650;9.290;2024-01-11T06:36:51;61.15;;;36.38;;
57856;SDS011;43683;48.650;9.290;2024-01-11T06:39:17;54.50;;;33.95;;
57856;SDS011;43683;48.650;9.290;2024-01-11T06:41:42;88.75;;;54.53;;
57856;SDS011;43683;48.650;9.290;2024-01-11T06:44:08;70.75;;;43.47;;
57856;SDS011;43683;48.650;9.290;2024-01-11T06:46:34;71.50;;;38.58;;
57856;SDS011;43683;48.650;9.290;2024-01-11T06:49:01;67.47;;;37.00;;
57856;SDS011;43683;48.650;9.290;2024-01-11T06:51:27;66.15;;;39.88;;
57856;SDS011;43683;48.650;9.290;2024-01-11T06:53:53;67.20;;;38.03;;
57856;SDS011;43683;48.650;9.290;2024-01-11T06:56:19;59.15;;;35.70;;
57856;SDS011;43683;48.650;9.290;2024-01-11T06:58:45;58.45;;;35.50;;
57856;SDS011;43683;48.650;9.290;2024-01-11T07:01:11;60.25;;;37.40;;
57856;SDS011;43683;48.650;9.290;2024-01-11T07:03:38;63.35;;;37.72;;
57856;SDS011;43683;48.650;9.290;2024-01-11T07:06:03;56.20;;;36.08;;
57856;SDS011;43683;48.650;9.290;2024-01-11T07:08:30;56.97;;;34.15;;
57856;SDS011;43683;48.650;9.290;2024-01-11T07:10:56;59.58;;;34.13;;
57856;SDS011;43683;48.650;9.290;2024-01-11T07:13:22;52.63;;;32.90;;
57856;SDS011;43683;48.650;9.290;2024-01-11T07:15:47;52.80;;;34.25;;
57856;SDS011;43683;48.650;9.290;2024-01-11T07:18:13;54.65;;;33.80;;
57856;SDS011;43683;48.650;9.290;2024-01-11T07:20:39;55.53;;;34.13;;
57856;SDS011;43683;48.650;9.290;2024-01-11T07:23:05;55.78;;;34.42;;
57856;SDS011;43683;48.650;9.290;2024-01-11T07:25:31;55.03;;;34.03;;
57856;SDS011;43683;48.650;9.290;2024-01-11T07:27:57;56.15;;;32.95;;
57856;SDS011;43683;48.650;9.290;2024-01-11T07:30:22;58.47;;;35.60;;
57856;SDS011;43683;48.650;9.290;2024-01-11T07:32:48;63.65;;;36.83;;
57856;SDS011;43683;48.650;9.290;2024-01-11T07:35:13;57.28;;;35.15;;
57856;SDS011;43683;48.650;9.290;2024-01-11T07:37:39;58.45;;;34.85;;
57856;SDS011;43683;48.650;9.290;2024-01-11T07:40:05;52.60;;;32.45;;
57856;SDS011;43683;48.650;9.290;2024-01-11T07:42:38;54.28;;;33.90;;
57856;SDS011;43683;48.650;9.290;2024-01-11T07:45:04;60.05;;;35.15;;
57856;SDS011;43683;48.650;9.290;2024-01-11T07:47:31;55.88;;;34.42;;
57856;SDS011;43683;48.650;9.290;2024-01-11T07:49:57;67.13;;;40.03;;
57856;SDS011;43683;48.650;9.290;2024-01-11T07:52:23;57.25;;;36.13;;
57856;SDS011;43683;48.650;9.290;2024-01-11T07:54:48;67.93;;;38.97;;
57856;SDS011;43683;48.650;9.290;2024-01-11T07:57:14;62.95;;;38.00;;
57856;SDS011;43683;48.650;9.290;2024-01-11T07:59:39;57.97;;;37.03;;
57856;SDS011;43683;48.650;9.290;2024-01-11T08:02:05;62.42;;;38.53;;
57856;SDS011;43683;48.650;9.290;2024-01-11T08:04:32;55.95;;;36.38;;
57856;SDS011;43683;48.650;9.290;2024-01-11T08:06:58;61.42;;;39.08;;
57856;SDS011;43683;48.650;9.290;2024-01-11T08:09:24;62.65;;;38.53;;
57856;SDS011;43683;48.650;9.290;2024-01-11T08:11:51;57.92;;;37.55;;
57856;SDS011;43683;48.650;9.290;2024-01-11T08:14:19;61.88;;;39.67;;
57856;SDS011;43683;48.650;9.290;2024-01-11T08:16:45;62.33;;;38.67;;
57856;SDS011;43683;48.650;9.290;2024-01-11T08:19:10;57.30;;;38.05;;
57856;SDS011;43683;48.650;9.290;2024-01-11T08:21:38;62.90;;;39.38;;
57856;SDS011;43683;48.650;9.290;2024-01-11T08:24:04;58.25;;;39.05;;
57856;SDS011;43683;48.650;9.290;2024-01-11T08:26:30;64.85;;;39.53;;
57856;SDS011;43683;48.650;9.290;2024-01-11T08:28:55;63.35;;;40.50;;
57856;SDS011;43683;48.650;9.290;2024-01-11T08:31:21;56.75;;;38.30;;
57856;SDS011;43683;48.650;9.290;2024-01-11T08:33:47;58.95;;;37.38;;
57856;SDS011;43683;48.650;9.290;2024-01-11T08:36:12;57.03;;;37.90;;
57856;SDS011;43683;48.650;9.290;2024-01-11T08:38:38;62.03;;;37.75;;
57856;SDS011;43683;48.650;9.290;2024-01-11T08:41:05;64.53;;;41.75;;
57856;SDS011;43683;48.650;9.290;2024-01-11T08:43:31;63.90;;;38.75;;
57856;SDS011;43683;48.650;9.290;2024-01-11T08:45:57;66.80;;;41.45;;
57856;SDS011;43683;48.650;9.290;2024-01-11T08:48:23;61.63;;;38.08;;
57856;SDS011;43683;48.650;9.290;2024-01-11T08:50:48;64.57;;;40.47;;
57856;SDS011;43683;48.650;9.290;2024-01-11T08:53:14;62.45;;;37.50;;
57856;SDS011;43683;48.650;9.290;2024-01-11T08:55:40;57.13;;;35.63;;
57856;SDS011;43683;48.650;9.290;2024-01-11T08:58:07;53.95;;;34.80;;
57856;SDS011;43683;48.650;9.290;2024-01-11T09:00:33;58.50;;;34.85;;
57856;SDS011;43683;48.650;9.290;2024-01-11T09:02:58;52.50;;;32.33;;
57856;SDS011;43683;48.650;9.290;2024-01-11T09:05:24;51.65;;;32.55;;
57856;SDS011;43683;48.650;9.290;2024-01-11T09:07:50;48.65;;;27.02;;
57856;SDS011;43683;48.650;9.290;2024-01-11T09:10:15;43.95;;;25.92;;
57856;SDS011;43683;48.650;9.290;2024-01-11T09:12:41;46.60;;;25.15;;
57856;SDS011;43683;48.650;9.290;2024-01-11T09:15:06;45.65;;;25.25;;
57856;SDS011;43683;48.650;9.290;2024-01-11T09:17:32;45.33;;;25.02;;
57856;SDS011;43683;48.650;9.290;2024-01-11T09:19:58;40.13;;;24.63;;
57856;SDS011;43683;48.650;9.290;2024-01-11T09:22:23;36.80;;;21.80;;
57856;SDS011;43683;48.650;9.290;2024-01-11T09:24:49;32.92;;;20.73;;
57856;SDS011;43683;48.650;9.290;2024-01-11T09:27:15;37.33;;;21.80;;
57856;SDS011;43683;48.650;9.290;2024-01-11T09:29:47;38.67;;;21.35;;
57856;SDS011;43683;48.650;9.290;2024-01-11T09:32:13;38.20;;;22.15;;
57856;SDS011;43683;48.650;9.290;2024-01-11T09:34:39;35.42;;;21.90;;
57856;SDS011;43683;48.650;9.290;2024-01-11T09:37:04;39.30;;;22.10;;
57856;SDS011;43683;48.650;9.290;2024-01-11T09:39:30;37.15;;;22.67;;
57856;SDS011;43683;48.650;9.290;2024-01-11T09:41:57;39.58;;;22.90;;
57856;SDS011;43683;48.650;9.290;2024-01-11T09:44:26;34.47;;;21.15;;
57856;SDS011;43683;48.650;9.290;2024-01-11T09:46:52;36.05;;;22.40;;
57856;SDS011;43683;48.650;9.290;2024-01-11T09:49:19;37.17;;;21.77;;
57856;SDS011;43683;48.650;9.290;2024-01-11T09:54:12;37.10;;;20.98;;
57856;SDS011;43683;48.650;9.290;2024-01-11T09:56:39;35.65;;;21.58;;
57856;SDS011;43683;48.650;9.290;2024-01-11T09:59:06;34.78;;;21.05;;
57856;SDS011;43683;48.650;9.290;2024-01-11T10:01:34;39.47;;;21.30;;
57856;SDS011;43683;48.650;9.290;2024-01-11T10:04:00;36.45;;;22.60;;
57856;SDS011;43683;48.650;9.290;2024-01-11T10:06:27;36.95;;;22.65;;
57856;SDS011;43683;48.650;9.290;2024-01-11T10:09:01;40.92;;;22.65;;
57856;SDS011;43683;48.650;9.290;2024-01-11T10:11:27;36.83;;;22.65;;
57856;SDS011;43683;48.650;9.290;2024-01-11T10:13:56;37.30;;;23.60;;
57856;SDS011;43683;48.650;9.290;2024-01-11T10:16:23;38.35;;;24.38;;
57856;SDS011;43683;48.650;9.290;2024-01-11T10:18:49;38.28;;;23.70;;
57856;SDS011;43683;48.650;9.290;2024-01-11T10:21:15;34.97;;;22.50;;
57856;SDS011;43683;48.650;9.290;2024-01-11T10:23:40;38.20;;;23.88;;
57856;SDS011;43683;48.650;9.290;2024-01-11T10:26:07;42.03;;;24.20;;
57856;SDS011;43683;48.650;9.290;2024-01-11T10:28:32;39.67;;;22.63;;
57856;SDS011;43683;48.650;9.290;2024-01-11T10:31:02;39.97;;;23.52;;
57856;SDS011;43683;48.650;9.290;2024-01-11T10:33:34;38.03;;;23.63;;
57856;SDS011;43683;48.650;9.290;2024-01-11T10:36:00;33.60;;;21.88;;
57856;SDS011;43683;48.650;9.290;2024-01-11T10:38:26;37.88;;;22.50;;
57856;SDS011;43683;48.650;9.290;2024-01-11T10:40:54;40.05;;;23.27;;
57856;SDS011;43683;48.650;9.290;2024-01-11T10:43:23;37.28;;;23.15;;
57856;SDS011;43683;48.650;9.290;2024-01-11T10:45:48;41.35;;;23.95;;
57856;SDS011;43683;48.650;9.290;2024-01-11T10:48:18;36.58;;;21.40;;
57856;SDS011;43683;48.650;9.290;2024-01-11T10:50:47;34.85;;;21.75;;
57856;SDS011;43683;48.650;9.290;2024-01-11T10:56:06;38.33;;;23.48;;
57856;SDS011;43683;48.650;9.290;2024-01-11T10:58:33;35.00;;;21.83;;
57856;SDS011;43683;48.650;9.290;2024-01-11T11:01:00;42.33;;;25.05;;
57856;SDS011;43683;48.650;9.290;2024-01-11T11:03:27;34.90;;;22.48;;
57856;SDS011;43683;48.650;9.290;2024-01-11T11:05:56;38.10;;;23.77;;
57856;SDS011;43683;48.650;9.290;2024-01-11T11:08:23;34.00;;;22.92;;
57856;SDS011;43683;48.650;9.290;2024-01-11T11:10:50;33.10;;;22.55;;
57856;SDS011;43683;48.650;9.290;2024-01-11T11:13:21;38.63;;;22.60;;
57856;SDS011;43683;48.650;9.290;2024-01-11T11:15:47;37.20;;;22.00;;
57856;SDS011;43683;48.650;9.290;2024-01-11T11:18:16;35.22;;;23.17;;
57856;SDS011;43683;48.650;9.290;2024-01-11T11:20:43;38.13;;;22.70;;
57856;SDS011;43683;48.650;9.290;2024-01-11T11:23:10;39.25;;;24.75;;
57856;SDS011;43683;48.650;9.290;2024-01-11T11:25:37;37.50;;;21.88;;
57856;SDS011;43683;48.650;9.290;2024-01-11T11:28:04;35.53;;;22.00;;
57856;SDS011;43683;48.650;9.290;2024-01-11T11:30:30;41.17;;;22.73;;
57856;SDS011;43683;48.650;9.290;2024-01-11T11:32:56;38.00;;;23.27;;
57856;SDS011;43683;48.650;9.290;2024-01-11T11:35:22;38.42;;;22.63;;
57856;SDS011;43683;48.650;9.290;2024-01-11T11:37:57;35.78;;;24.00;;
57856;SDS011;43683;48.650;9.290;2024-01-11T11:40:32;33.00;;;21.80;;
57856;SDS011;43683;48.650;9.290;2024-01-11T11:43:01;37.47;;;22.63;;
57856;SDS011;43683;48.650;9.290;2024-01-11T11:45:29;42.58;;;24.60;;
57856;SDS011;43683;48.650;9.290;2024-01-11T11:47:56;37.67;;;22.38;;
57856;SDS011;43683;48.650;9.290;2024-01-11T11:50:22;35.30;;;22.20;;
57856;SDS011;43683;48.650;9.290;2024-01-11T11:52:54;38.13;;;23.92;;
57856;SDS011;43683;48.650;9.290;2024-01-11T11:55:23;37.47;;;23.08;;
57856;SDS011;43683;48.650;9.290;2024-01-11T11:57:53;37.17;;;24.17;;
57856;SDS011;43683;48.650;9.290;2024-01-11T12:00:19;40.33;;;24.02;;
57856;SDS011;43683;48.650;9.290;2024-01-11T12:02:46;37.60;;;25.05;;
57856;SDS011;43683;48.650;9.290;2024-01-11T12:05:13;41.17;;;25.30;;
57856;SDS011;43683;48.650;9.290;2024-01-11T12:07:39;36.85;;;25.00;;
57856;SDS011;43683;48.650;9.290;2024-01-11T12:10:05;38.28;;;23.35;;
57856;SDS011;43683;48.650;9.290;2024-01-11T12:12:31;39.20;;;24.65;;
57856;SDS011;43683;48.650;9.290;2024-01-11T12:14:58;41.55;;;22.77;;
57856;SDS011;43683;48.650;9.290;2024-01-11T12:17:24;38.35;;;23.27;;
57856;SDS011;43683;48.650;9.290;2024-01-11T12:19:51;41.35;;;24.48;;
57856;SDS011;43683;48.650;9.290;2024-01-11T12:22:17;37.58;;;24.48;;
57856;SDS011;43683;48.650;9.290;2024-01-11T12:24:42;44.72;;;25.13;;
57856;SDS011;43683;48.650;9.290;2024-01-11T12:27:08;38.15;;;24.73;;
57856;SDS011;43683;48.650;9.290;2024-01-11T12:29:34;37.75;;;24.08;;
57856;SDS011;43683;48.650;9.290;2024-01-11T12:31:59;40.95;;;24.73;;
57856;SDS011;43683;48.650;9.290;2024-01-11T12:34:25;38.15;;;25.35;;
57856;SDS011;43683;48.650;9.290;2024-01-11T12:36:52;42.90;;;25.75;;
57856;SDS011;43683;48.650;9.290;2024-01-11T12:39:19;37.63;;;23.92;;
57856;SDS011;43683;48.650;9.290;2024-01-11T12:41:47;41.47;;;25.63;;
57856;SDS011;43683;48.650;9.290;2024-01-11T12:44:19;40.75;;;25.85;;
57856;SDS011;43683;48.650;9.290;2024-01-11T12:46:47;41.97;;;25.70;;
57856;SDS011;43683;48.650;9.290;2024-01-11T12:49:12;42.47;;;26.63;;
57856;SDS011;43683;48.650;9.290;2024-01-11T12:51:38;41.45;;;25.30;;
57856;SDS011;43683;48.650;9.290;2024-01-11T12:54:04;41.20;;;25.50;;
57856;SDS011;43683;48.650;9.290;2024-01-11T12:56:40;38.92;;;24.10;;
57856;SDS011;43683;48.650;9.290;2024-01-11T12:59:07;41.38;;;27.20;;
57856;SDS011;43683;48.650;9.290;2024-01-11T13:01:33;44.03;;;26.75;;
57856;SDS011;43683;48.650;9.290;2024-01-11T13:03:59;44.45;;;26.85;;
57856;SDS011;43683;48.650;9.290;2024-01-11T13:06:27;41.47;;;25.25;;
57856;SDS011;43683;48.650;9.290;2024-01-11T13:08:55;39.60;;;25.77;;
57856;SDS011;43683;48.650;9.290;2024-01-11T13:11:20;40.92;;;23.88;;
57856;SDS011;43683;48.650;9.290;2024-01-11T13:13:46;38.60;;;23.75;;
57856;SDS011;43683;48.650;9.290;2024-01-11T13:16:12;40.25;;;24.35;;
57856;SDS011;43683;48.650;9.290;2024-01-11T13:18:39;40.10;;;23.67;;
57856;SDS011;43683;48.650;9.290;2024-01-11T13:21:05;35.60;;;22.50;;
57856;SDS011;43683;48.650;9.290;2024-01-11T13:23:34;36.55;;;23.00;;
57856;SDS011;43683;48.650;9.290;2024-01-11T13:26:00;41.42;;;22.55;;
57856;SDS011;43683;48.650;9.290;2024-01-11T13:28:25;39.42;;;24.70;;
57856;SDS011;43683;48.650;9.290;2024-01-11T13:30:51;39.85;;;23.35;;
57856;SDS011;43683;48.650;9.290;2024-01-11T13:33:17;40.50;;;24.77;;
57856;SDS011;43683;48.650;9.290;2024-01-11T13:35:44;39.87;;;25.03;;
57856;SDS011;43683;48.650;9.290;2024-01-11T13:38:10;36.05;;;22.08;;
57856;SDS011;43683;48.650;9.290;2024-01-11T13:40:36;40.78;;;22.77;;
57856;SDS011;43683;48.650;9.290;2024-01-11T13:43:01;41.88;;;24.63;;
57856;SDS011;43683;48.650;9.290;2024-01-11T13:45:28;37.08;;;21.95;;
57856;SDS011;43683;48.650;9.290;2024-01-11T13:47:54;42.00;;;25.13;;
57856;SDS011;43683;48.650;9.290;2024-01-11T13:50:20;37.25;;;23.70;;
57856;SDS011;43683;48.650;9.290;2024-01-11T13:52:46;36.70;;;23.45;;
57856;SDS011;43683;48.650;9.290;2024-01-11T13:55:12;40.80;;;24.33;;
57856;SDS011;43683;48.650;9.290;2024-01-11T13:57:38;39.55;;;23.80;;
57856;SDS011;43683;48.650;9.290;2024-01-11T14:00:04;39.22;;;23.42;;
57856;SDS011;43683;48.650;9.290;2024-01-11T14:02:32;38.75;;;23.73;;
57856;SDS011;43683;48.650;9.290;2024-01-11T14:04:58;43.88;;;25.25;;
57856;SDS011;43683;48.650;9.290;2024-01-11T14:07:24;41.40;;;25.75;;
57856;SDS011;43683;48.650;9.290;2024-01-11T14:09:50;44.67;;;24.73;;
57856;SDS011;43683;48.650;9.290;2024-01-11T14:12:16;36.88;;;23.70;;
57856;SDS011;43683;48.650;9.290;2024-01-11T14:14:42;39.08;;;23.35;;
57856;SDS011;43683;48.650;9.290;2024-01-11T14:17:10;37.28;;;22.95;;
57856;SDS011;43683;48.650;9.290;2024-01-11T14:19:36;39.15;;;23.63;;
57856;SDS011;43683;48.650;9.290;2024-01-11T14:22:01;37.20;;;23.30;;